Time;durP1;ratioP1;P1;durP2;ratioP2;P2;SDS_P1;SDS_P2;PMS_P1;PMS_P2;Temp;Humidity;BMP_temperature;BMP_pressure;BME280_temperature;BME280_humidity;BME280_pressure;Samples;Min_cycle;Max_cycle;Signal;HPM_P1;HPM_P2
2022/01/26 00:06:37;;;;;;;123.53;37.25;;;3.60;99.90;;;;;;5089887;28;20115;-88
2022/01/26 00:09:05;;;;;;;131.50;35.40;;;3.50;99.90;;;;;;5089900;28;20090;-89
2022/01/26 00:11:31;;;;;;;126.60;36.00;;;3.60;99.90;;;;;;5073083;28;20139;-89
2022/01/26 00:13:58;;;;;;;129.52;35.67;;;3.70;99.90;;;;;;5073072;28;20080;-88
2022/01/26 00:16:36;;;;;;;138.88;37.83;;;3.60;99.90;;;;;;5073031;28;20040;-89
2022/01/26 00:19:03;;;;;;;126.40;37.22;;;3.60;99.90;;;;;;5058525;28;20040;-90
2022/01/26 00:21:35;;;;;;;130.57;36.63;;;3.50;99.90;;;;;;5089952;28;20489;-88
2022/01/26 00:27:03;;;;;;;134.45;37.15;;;3.60;99.90;;;;;;5090056;28;20105;-89
2022/01/26 00:29:35;;;;;;;128.40;35.33;;;3.50;99.90;;;;;;5089656;28;20585;-89
2022/01/26 00:40:30;;;;;;;139.57;37.42;;;3.50;99.90;;;;;;5089816;28;20124;-89
2022/01/26 00:43:01;;;;;;;133.63;37.08;;;3.50;99.90;;;;;;5072458;28;20046;-89
2022/01/26 00:45:34;;;;;;;148.85;39.33;;;3.50;99.90;;;;;;5073059;28;20048;-89
2022/01/26 00:48:04;;;;;;;143.40;38.90;;;3.40;99.90;;;;;;5088757;28;20515;-89
2022/01/26 00:50:30;;;;;;;153.35;39.88;;;3.30;99.90;;;;;;5072644;28;20060;-89
2022/01/26 00:52:56;;;;;;;141.43;38.47;;;3.30;99.90;;;;;;5071982;28;20135;-88
2022/01/26 00:55:22;;;;;;;141.63;38.78;;;3.30;99.90;;;;;;5072432;28;20128;-88
2022/01/26 00:57:48;;;;;;;144.68;38.03;;;3.00;99.90;;;;;;5071618;28;20044;-89
2022/01/26 01:00:21;;;;;;;148.30;39.47;;;3.10;99.90;;;;;;5072472;28;20055;-88
2022/01/26 01:02:47;;;;;;;139.00;36.70;;;3.20;99.90;;;;;;5072066;28;20504;-88
2022/01/26 01:05:37;;;;;;;135.52;35.60;;;3.20;99.90;;;;;;5072289;28;20701;-89
2022/01/26 01:08:08;;;;;;;133.30;37.70;;;3.20;99.90;;;;;;5100775;28;20557;-89
2022/01/26 01:10:34;;;;;;;131.95;36.83;;;3.20;99.90;;;;;;5072246;28;20485;-88
2022/01/26 01:13:00;;;;;;;134.40;37.28;;;3.30;99.90;;;;;;5088280;28;20059;-89
2022/01/26 01:15:28;;;;;;;126.10;34.08;;;3.30;99.90;;;;;;5088901;28;20413;-90
2022/01/26 01:18:05;;;;;;;131.80;34.38;;;3.40;99.90;;;;;;5088166;28;20489;-89
2022/01/26 01:28:47;;;;;;;130.32;35.67;;;3.40;99.90;;;;;;5085365;28;20098;-89
2022/01/26 01:31:17;;;;;;;137.13;35.30;;;3.30;99.90;;;;;;5071612;28;20529;-88
2022/01/26 01:33:46;;;;;;;127.03;35.05;;;3.30;99.90;;;;;;5071761;28;20040;-89
2022/01/26 01:36:12;;;;;;;139.90;36.83;;;3.40;99.90;;;;;;5071411;28;20047;-88
2022/01/26 01:38:43;;;;;;;139.35;36.85;;;3.40;99.90;;;;;;5071539;28;20084;-89
2022/01/26 01:41:09;;;;;;;135.55;37.35;;;3.40;99.90;;;;;;5071714;28;20042;-90
2022/01/26 01:43:37;;;;;;;132.60;34.08;;;3.30;99.90;;;;;;5071821;28;20044;-89
2022/01/26 01:46:03;;;;;;;133.98;35.92;;;3.40;99.90;;;;;;5089071;28;20097;-88
2022/01/26 01:48:31;;;;;;;127.38;36.78;;;3.40;99.90;;;;;;5080424;28;20459;-89
2022/01/26 01:51:00;;;;;;;123.97;34.53;;;3.40;99.90;;;;;;5083553;28;20071;-88
2022/01/26 01:53:38;;;;;;;136.05;37.00;;;3.40;99.90;;;;;;5078317;28;20066;-89
2022/01/26 01:56:05;;;;;;;139.48;37.08;;;3.30;99.90;;;;;;5070682;28;20040;-89
2022/01/26 01:58:31;;;;;;;137.00;35.45;;;3.30;99.90;;;;;;5071090;28;20044;-89
2022/01/26 02:00:57;;;;;;;133.02;35.67;;;3.30;99.90;;;;;;5087700;28;20486;-89
2022/01/26 02:03:24;;;;;;;127.63;35.63;;;3.30;99.90;;;;;;5106135;28;20046;-89
2022/01/26 02:05:50;;;;;;;135.43;33.90;;;3.30;99.90;;;;;;5075223;28;20032;-89
2022/01/26 02:08:15;;;;;;;134.95;33.97;;;3.40;99.90;;;;;;5087915;28;20040;-89
2022/01/26 02:10:42;;;;;;;139.50;35.97;;;3.30;99.90;;;;;;5085858;28;20101;-88
2022/01/26 02:13:18;;;;;;;123.35;33.00;;;3.30;99.90;;;;;;5082103;28;20050;-89
2022/01/26 02:51:26;;;;;;;135.57;32.45;;;3.20;99.90;;;;;;5083080;28;20365;-89
2022/01/26 02:56:40;;;;;;;140.52;37.25;;;3.20;99.90;;;;;;5087887;28;20044;-89
2022/01/26 02:59:35;;;;;;;134.52;38.35;;;3.20;99.90;;;;;;5070631;28;20047;-89
2022/01/26 03:02:01;;;;;;;135.32;34.67;;;3.30;99.90;;;;;;5066869;28;20414;-89
2022/01/26 03:07:12;;;;;;;139.65;38.05;;;3.20;99.90;;;;;;5087477;28;20192;-89
2022/01/26 03:09:44;;;;;;;139.10;36.38;;;3.20;99.90;;;;;;5070740;28;20054;-89
2022/01/26 03:12:12;;;;;;;136.43;35.97;;;3.20;99.90;;;;;;5088050;28;20109;-89
2022/01/26 03:14:55;;;;;;;158.63;37.88;;;3.20;99.90;;;;;;5070798;28;20493;-89
2022/01/26 03:17:46;;;;;;;137.63;35.47;;;3.20;99.90;;;;;;5070496;28;20044;-89
2022/01/26 03:20:14;;;;;;;140.40;35.80;;;3.20;99.90;;;;;;5087464;28;20062;-89
2022/01/26 03:35:46;;;;;;;154.52;39.25;;;3.10;99.90;;;;;;5089673;28;20047;-89
2022/01/26 03:38:19;;;;;;;149.73;37.50;;;3.20;99.90;;;;;;5090330;28;20048;-90
2022/01/26 03:40:45;;;;;;;143.27;37.30;;;3.10;99.90;;;;;;5059271;28;20054;-89
2022/01/26 03:43:11;;;;;;;138.00;35.17;;;2.90;99.90;;;;;;5073911;28;20040;-89
2022/01/26 03:45:36;;;;;;;152.80;38.10;;;3.00;99.90;;;;;;5073838;28;20044;-89
2022/01/26 03:48:02;;;;;;;147.52;38.38;;;2.90;99.90;;;;;;5072929;28;20044;-89
2022/01/26 03:50:28;;;;;;;138.23;36.03;;;2.90;99.90;;;;;;5073893;28;20109;-89
2022/01/26 03:52:53;;;;;;;146.95;37.08;;;2.90;99.90;;;;;;5073924;28;20132;-89
2022/01/26 03:55:19;;;;;;;151.65;38.15;;;2.90;99.90;;;;;;5090646;28;20036;-89
2022/01/26 03:57:45;;;;;;;156.95;40.90;;;2.90;99.90;;;;;;5073463;28;20040;-89
2022/01/26 04:00:11;;;;;;;146.52;37.85;;;2.80;99.90;;;;;;5073311;28;20054;-89
2022/01/26 04:02:37;;;;;;;140.60;35.63;;;2.80;99.90;;;;;;5073443;28;20081;-89
2022/01/26 04:05:07;;;;;;;155.93;39.13;;;2.80;99.90;;;;;;5073565;28;20451;-89
2022/01/26 04:07:33;;;;;;;142.38;36.35;;;2.80;99.90;;;;;;5090666;28;20071;-89
2022/01/26 04:10:08;;;;;;;149.00;36.60;;;2.80;99.90;;;;;;5073044;28;20078;-88
2022/01/26 04:12:36;;;;;;;144.05;36.80;;;2.80;99.90;;;;;;5073504;28;20055;-89
2022/01/26 04:15:10;;;;;;;143.02;36.65;;;2.80;99.90;;;;;;5087912;28;20071;-89
2022/01/26 04:17:35;;;;;;;135.52;35.38;;;2.80;99.90;;;;;;5069874;28;20041;-89
2022/01/26 04:20:01;;;;;;;140.90;37.85;;;2.80;99.90;;;;;;5053182;28;20055;-89
2022/01/26 04:22:38;;;;;;;132.98;35.03;;;2.80;99.90;;;;;;5062237;28;20040;-88
2022/01/26 04:25:06;;;;;;;142.95;33.88;;;2.80;99.90;;;;;;5071899;28;20060;-89
2022/01/26 04:27:37;;;;;;;152.93;37.95;;;2.70;99.90;;;;;;5064921;28;20130;-88
2022/01/26 04:30:03;;;;;;;147.38;37.40;;;2.60;99.90;;;;;;5072370;28;20040;-88
2022/01/26 04:32:29;;;;;;;144.45;33.78;;;2.60;99.90;;;;;;5064073;28;20382;-89
2022/01/26 04:34:56;;;;;;;147.13;36.90;;;2.60;99.90;;;;;;5081463;28;20097;-89
2022/01/26 04:37:54;;;;;;;151.68;38.05;;;2.50;99.90;;;;;;5072836;28;20097;-89
2022/01/26 04:40:19;;;;;;;139.35;35.22;;;2.60;99.90;;;;;;5089603;28;20071;-88
2022/01/26 04:42:58;;;;;;;139.15;33.63;;;2.60;99.90;;;;;;5075016;28;20518;-89
2022/01/26 04:45:23;;;;;;;126.65;32.70;;;2.60;99.90;;;;;;5052468;28;20050;-89
2022/01/26 04:47:49;;;;;;;145.63;33.72;;;2.50;99.90;;;;;;5073761;28;20048;-88
2022/01/26 04:50:15;;;;;;;142.88;35.08;;;2.50;99.90;;;;;;5072638;28;20079;-89
2022/01/26 04:52:40;;;;;;;139.68;34.67;;;2.60;99.90;;;;;;5088314;28;20050;-89
2022/01/26 04:55:07;;;;;;;140.82;34.35;;;2.60;99.90;;;;;;5091281;28;20043;-89
2022/01/26 04:57:32;;;;;;;137.50;36.72;;;2.60;99.90;;;;;;5072714;28;20090;-89
2022/01/26 04:59:58;;;;;;;130.05;33.35;;;2.60;99.90;;;;;;5071914;28;20040;-89
2022/01/26 05:02:24;;;;;;;133.00;34.30;;;2.60;99.90;;;;;;5077199;28;20031;-89
2022/01/26 05:04:50;;;;;;;138.00;35.00;;;2.60;99.90;;;;;;5062447;28;20044;-88
2022/01/26 05:07:15;;;;;;;135.38;33.25;;;2.60;99.90;;;;;;5055394;28;20044;-89
2022/01/26 05:09:41;;;;;;;132.68;35.13;;;2.60;99.90;;;;;;5074203;28;20048;-90
2022/01/26 05:12:07;;;;;;;120.63;32.92;;;2.70;99.90;;;;;;5078581;28;20068;-90
2022/01/26 05:14:33;;;;;;;134.85;34.55;;;2.50;99.90;;;;;;5074541;28;20528;-91
2022/01/26 05:16:59;;;;;;;123.68;31.67;;;2.60;99.90;;;;;;5075212;28;20111;-90
2022/01/26 05:19:24;;;;;;;121.30;33.38;;;2.70;99.90;;;;;;5081266;28;20489;-91
2022/01/26 05:21:50;;;;;;;123.75;32.85;;;2.70;99.90;;;;;;5087452;28;20123;-89
2022/01/26 05:24:15;;;;;;;122.43;31.55;;;2.80;99.90;;;;;;5082695;28;20045;-90
2022/01/26 05:26:41;;;;;;;121.05;30.48;;;2.80;99.90;;;;;;5063679;28;20126;-96
2022/01/26 05:29:07;;;;;;;128.52;32.67;;;2.80;99.90;;;;;;5082290;28;20072;-90
2022/01/26 05:31:33;;;;;;;120.20;31.58;;;2.90;99.90;;;;;;5071853;28;20490;-90
2022/01/26 05:33:58;;;;;;;125.05;33.55;;;2.90;99.90;;;;;;5071784;28;20106;-91
2022/01/26 05:36:24;;;;;;;133.88;31.13;;;2.90;99.90;;;;;;5087623;28;20032;-89
2022/01/26 05:38:50;;;;;;;124.80;32.00;;;2.90;99.90;;;;;;5080044;28;20044;-89
2022/01/26 05:41:16;;;;;;;116.68;30.25;;;2.90;99.90;;;;;;5070048;28;20041;-90
2022/01/26 05:43:41;;;;;;;127.80;32.42;;;2.90;99.90;;;;;;5061572;28;20127;-90
2022/01/26 05:46:12;;;;;;;113.93;31.30;;;2.90;99.90;;;;;;5057244;28;20020;-90
2022/01/26 05:48:43;;;;;;;111.75;29.23;;;2.90;99.90;;;;;;5066946;28;20040;-88
2022/01/26 05:51:10;;;;;;;120.35;31.17;;;2.90;99.90;;;;;;5075404;28;20170;-88
2022/01/26 05:53:37;;;;;;;120.28;31.40;;;2.70;99.90;;;;;;5092291;28;20531;-89
2022/01/26 05:56:03;;;;;;;119.22;30.15;;;2.70;99.90;;;;;;5091129;28;20036;-88
2022/01/26 05:58:29;;;;;;;124.25;31.02;;;2.70;99.90;;;;;;5074626;28;20051;-90
2022/01/26 06:00:58;;;;;;;120.05;31.25;;;2.80;99.90;;;;;;5074081;28;20040;-90
2022/01/26 06:03:24;;;;;;;112.72;30.10;;;2.70;99.90;;;;;;5075187;28;20048;-93
2022/01/26 06:05:50;;;;;;;116.53;28.23;;;2.70;99.90;;;;;;5059143;28;20066;-93
2022/01/26 06:08:15;;;;;;;116.50;29.02;;;2.80;99.90;;;;;;5063231;28;20044;-92
2022/01/26 06:10:41;;;;;;;114.30;28.95;;;2.80;99.90;;;;;;5065931;28;20050;-92
2022/01/26 06:13:07;;;;;;;113.03;28.15;;;2.70;99.90;;;;;;5064000;28;20127;-93
2022/01/26 06:15:32;;;;;;;112.82;28.38;;;2.70;99.90;;;;;;5066089;28;20078;-92
2022/01/26 06:17:58;;;;;;;107.53;28.02;;;2.70;99.90;;;;;;5081514;28;20066;-93
2022/01/26 06:20:23;;;;;;;102.32;29.15;;;2.70;99.90;;;;;;5068089;28;20063;-92
2022/01/26 06:22:49;;;;;;;116.25;28.75;;;2.70;99.90;;;;;;5065953;28;20039;-92
2022/01/26 06:25:15;;;;;;;101.28;29.23;;;2.60;99.90;;;;;;5070584;28;20031;-91
2022/01/26 06:27:43;;;;;;;108.72;28.30;;;2.70;99.90;;;;;;5070675;28;20134;-90
2022/01/26 06:30:10;;;;;;;107.80;27.95;;;2.70;99.90;;;;;;5059247;28;20036;-91
2022/01/26 06:32:37;;;;;;;101.93;28.17;;;2.70;99.90;;;;;;5066353;28;20032;-92
2022/01/26 06:35:03;;;;;;;108.78;27.55;;;2.70;99.90;;;;;;5069792;28;20036;-91
2022/01/26 06:37:29;;;;;;;112.38;28.20;;;2.80;99.90;;;;;;5065447;28;20039;-91
2022/01/26 06:39:55;;;;;;;102.95;27.98;;;2.90;99.90;;;;;;5070117;28;20036;-90
2022/01/26 06:42:25;;;;;;;106.00;27.38;;;3.00;99.90;;;;;;5067469;28;20678;-90
2022/01/26 06:45:08;;;;;;;110.03;26.60;;;2.90;99.90;;;;;;5063307;28;20544;-91
2022/01/26 06:47:53;;;;;;;98.18;27.80;;;2.90;99.90;;;;;;5059853;28;20512;-91
2022/01/26 06:50:19;;;;;;;99.90;26.20;;;2.80;99.90;;;;;;5072803;28;20413;-92
2022/01/26 06:52:48;;;;;;;100.00;27.35;;;2.90;99.90;;;;;;5080978;28;20043;-91
2022/01/26 06:55:15;;;;;;;100.95;26.30;;;2.90;99.90;;;;;;5067490;28;20035;-92
2022/01/26 06:57:41;;;;;;;97.13;26.77;;;2.90;99.90;;;;;;5057988;28;20044;-92
2022/01/26 07:00:09;;;;;;;93.75;24.80;;;3.00;99.90;;;;;;5062036;28;20436;-93
2022/01/26 07:02:37;;;;;;;99.85;29.40;;;3.00;99.90;;;;;;5071427;28;20046;-92
2022/01/26 07:05:03;;;;;;;89.18;26.23;;;3.00;99.90;;;;;;5072281;28;20035;-91
2022/01/26 07:07:29;;;;;;;94.85;26.55;;;3.00;99.90;;;;;;5076569;28;20036;-91
2022/01/26 07:09:54;;;;;;;98.03;28.05;;;3.00;99.90;;;;;;5057606;28;20044;-92
2022/01/26 07:12:20;;;;;;;99.10;28.58;;;3.00;99.90;;;;;;5069068;28;20070;-91
2022/01/26 07:22:43;;;;;;;99.03;27.35;;;3.10;99.90;;;;;;5082499;28;20058;-91
2022/01/26 07:25:09;;;;;;;104.30;28.42;;;3.00;99.90;;;;;;5074299;27;20512;-91
2022/01/26 07:27:34;;;;;;;117.82;34.20;;;3.00;99.90;;;;;;5070018;28;20059;-91
2022/01/26 07:30:00;;;;;;;114.85;30.13;;;2.90;99.90;;;;;;5073532;28;20051;-91
2022/01/26 07:32:28;;;;;;;101.00;28.95;;;3.00;99.90;;;;;;5070966;28;20456;-91
2022/01/26 07:34:54;;;;;;;111.32;30.42;;;2.90;99.90;;;;;;5062940;28;20085;-91
2022/01/26 07:37:21;;;;;;;120.03;32.00;;;2.90;99.90;;;;;;5069188;28;20048;-91
2022/01/26 07:40:01;;;;;;;121.80;34.63;;;3.00;99.90;;;;;;5069824;28;20044;-91
2022/01/26 07:42:27;;;;;;;112.72;32.20;;;3.10;99.90;;;;;;5079918;28;20126;-92
2022/01/26 07:44:52;;;;;;;131.95;35.25;;;3.00;99.90;;;;;;5068680;28;20127;-91
2022/01/26 07:47:18;;;;;;;128.90;35.65;;;3.00;99.90;;;;;;5064555;28;20052;-90
2022/01/26 07:49:44;;;;;;;127.35;36.92;;;3.10;99.90;;;;;;5081160;28;20106;-90
2022/01/26 07:52:09;;;;;;;132.57;37.75;;;3.20;99.90;;;;;;5072426;28;20094;-89
2022/01/26 07:54:35;;;;;;;127.72;35.05;;;3.10;99.90;;;;;;5071642;28;20429;-94
2022/01/26 07:57:01;;;;;;;128.93;35.88;;;3.10;99.90;;;;;;5069771;28;20405;-89
2022/01/26 07:59:27;;;;;;;130.13;37.63;;;3.20;99.90;;;;;;5073366;28;20051;-91
2022/01/26 08:01:53;;;;;;;140.23;38.08;;;3.30;99.90;;;;;;5073458;28;20561;-90
2022/01/26 08:04:19;;;;;;;143.02;38.92;;;3.20;99.90;;;;;;5073089;28;20079;-90
2022/01/26 08:06:44;;;;;;;137.98;40.65;;;3.20;99.90;;;;;;5073752;28;20048;-90
2022/01/26 08:09:11;;;;;;;139.90;38.35;;;3.20;99.90;;;;;;5073321;28;20040;-90
2022/01/26 08:11:36;;;;;;;153.25;44.33;;;3.20;99.90;;;;;;5070574;28;20036;-90
2022/01/26 08:14:02;;;;;;;155.05;42.17;;;3.20;99.90;;;;;;5089055;28;20097;-91
2022/01/26 08:16:28;;;;;;;159.88;43.72;;;3.20;99.90;;;;;;5063361;28;20192;-90
2022/01/26 08:18:54;;;;;;;160.05;44.83;;;3.30;99.90;;;;;;5069050;28;20036;-90
2022/01/26 08:21:19;;;;;;;169.55;48.55;;;3.30;99.90;;;;;;5072655;28;20059;-91
2022/01/26 08:23:47;;;;;;;161.35;47.38;;;3.30;99.90;;;;;;5072649;28;20036;-90
2022/01/26 08:26:13;;;;;;;171.38;48.45;;;3.30;99.90;;;;;;5073450;28;20051;-90
2022/01/26 08:28:42;;;;;;;176.63;50.15;;;3.40;99.90;;;;;;5073243;28;20051;-91
2022/01/26 08:31:08;;;;;;;180.77;52.40;;;3.20;99.90;;;;;;5073743;28;20054;-90
2022/01/26 08:33:34;;;;;;;198.45;56.80;;;3.30;99.90;;;;;;5073766;28;20130;-90
2022/01/26 08:35:59;;;;;;;182.73;54.83;;;3.40;99.90;;;;;;5069675;28;20036;-91
2022/01/26 08:38:26;;;;;;;186.30;54.17;;;3.30;99.90;;;;;;5066066;28;20094;-91
2022/01/26 08:40:52;;;;;;;185.93;54.28;;;3.40;99.90;;;;;;5069455;28;20040;-89
2022/01/26 08:43:17;;;;;;;196.05;55.90;;;3.40;99.90;;;;;;5067223;28;20436;-91
2022/01/26 08:45:43;;;;;;;214.63;59.17;;;3.60;99.90;;;;;;5086680;28;20044;-90
2022/01/26 08:48:10;;;;;;;196.38;60.05;;;3.50;99.90;;;;;;5069918;28;20466;-93
2022/01/26 08:50:35;;;;;;;215.52;64.25;;;3.40;99.90;;;;;;5071721;28;20040;-92
2022/01/26 08:53:01;;;;;;;212.90;58.40;;;3.50;99.90;;;;;;5058126;28;20051;-92
2022/01/26 08:55:27;;;;;;;210.15;60.97;;;3.60;99.90;;;;;;5069110;28;20045;-93
2022/01/26 08:57:53;;;;;;;216.48;61.78;;;3.60;99.90;;;;;;5062144;28;20059;-92
2022/01/26 09:00:18;;;;;;;225.05;63.08;;;3.50;99.90;;;;;;5052239;28;20097;-91
2022/01/26 09:02:46;;;;;;;208.27;59.92;;;3.60;99.90;;;;;;5068397;28;20037;-93
2022/01/26 09:05:13;;;;;;;209.30;60.25;;;3.50;99.90;;;;;;5068087;28;20185;-92
2022/01/26 09:07:42;;;;;;;221.75;66.05;;;3.50;99.90;;;;;;5063625;28;20514;-91
2022/01/26 09:10:08;;;;;;;205.52;55.58;;;3.60;99.90;;;;;;5053928;28;20113;-91
2022/01/26 09:12:37;;;;;;;216.10;60.92;;;3.60;99.90;;;;;;5071256;28;20094;-92
2022/01/26 09:15:06;;;;;;;209.07;56.08;;;3.60;99.90;;;;;;5061993;28;20443;-92
2022/01/26 09:17:33;;;;;;;212.05;61.95;;;3.60;99.90;;;;;;5065874;28;20059;-92
2022/01/26 09:20:00;;;;;;;213.20;60.17;;;3.60;99.90;;;;;;5068618;28;20375;-92
2022/01/26 09:22:26;;;;;;;221.38;63.70;;;3.80;99.90;;;;;;5064683;28;20036;-92
2022/01/26 09:24:52;;;;;;;225.20;65.40;;;3.70;99.90;;;;;;5053732;28;20044;-91
2022/01/26 09:27:18;;;;;;;220.38;60.85;;;3.70;99.90;;;;;;5070742;28;20058;-92
2022/01/26 09:29:46;;;;;;;209.65;59.50;;;3.80;99.90;;;;;;5072022;28;20413;-92
2022/01/26 09:32:13;;;;;;;217.90;63.53;;;3.80;99.90;;;;;;5068708;28;20032;-91
2022/01/26 09:34:39;;;;;;;226.43;65.30;;;3.70;99.90;;;;;;5071391;28;20048;-91
2022/01/26 09:37:06;;;;;;;215.38;62.63;;;3.70;99.90;;;;;;5071236;28;20032;-91
2022/01/26 09:39:32;;;;;;;215.00;61.25;;;3.70;99.90;;;;;;5071873;28;20046;-91
2022/01/26 09:41:58;;;;;;;213.40;63.55;;;3.70;99.90;;;;;;5071413;28;20040;-90
2022/01/26 09:44:24;;;;;;;225.32;64.07;;;3.60;99.90;;;;;;5070611;28;20131;-91
2022/01/26 09:46:52;;;;;;;211.95;64.07;;;3.70;99.90;;;;;;5062628;28;20462;-91
2022/01/26 09:49:18;;;;;;;218.85;61.60;;;3.70;99.90;;;;;;5050328;28;20088;-91
2022/01/26 09:51:49;;;;;;;208.38;59.90;;;3.70;99.90;;;;;;5049818;28;20048;-91
2022/01/26 09:54:17;;;;;;;205.30;60.03;;;3.70;99.90;;;;;;5064983;28;20040;-91
2022/01/26 09:56:49;;;;;;;203.20;59.92;;;3.80;99.90;;;;;;5048887;28;20036;-91
2022/01/26 09:59:16;;;;;;;208.98;61.50;;;3.80;99.90;;;;;;5050379;28;20044;-91
2022/01/26 10:01:44;;;;;;;207.20;56.95;;;3.90;99.90;;;;;;5050350;28;20040;-91
2022/01/26 10:04:25;;;;;;;198.88;57.60;;;3.90;99.90;;;;;;5049643;28;20053;-90
2022/01/26 10:07:08;;;;;;;200.55;58.83;;;4.00;99.90;;;;;;5050824;28;20079;-91
2022/01/26 10:17:40;;;;;;;183.52;51.22;;;4.00;99.90;;;;;;5066000;28;20072;-92
2022/01/26 10:20:09;;;;;;;187.38;53.17;;;4.20;99.90;;;;;;5048704;28;20059;-92
2022/01/26 10:22:36;;;;;;;168.02;50.42;;;4.20;99.90;;;;;;5048830;28;20131;-91
2022/01/26 10:25:11;;;;;;;182.88;54.13;;;4.30;99.90;;;;;;5048723;28;20055;-91
2022/01/26 10:27:41;;;;;;;172.15;53.38;;;4.30;99.90;;;;;;5048741;28;20044;-92
2022/01/26 10:30:08;;;;;;;175.70;52.72;;;4.30;99.90;;;;;;5047548;28;20071;-91
2022/01/26 10:32:35;;;;;;;179.95;55.05;;;4.20;99.90;;;;;;5048233;28;20473;-91
2022/01/26 10:35:02;;;;;;;182.20;55.10;;;4.30;99.90;;;;;;5048183;28;20046;-92
2022/01/26 10:37:28;;;;;;;179.82;53.45;;;4.30;99.90;;;;;;5049589;28;20036;-90
2022/01/26 10:39:57;;;;;;;179.07;53.85;;;4.30;99.90;;;;;;5049824;28;20113;-91
2022/01/26 10:42:24;;;;;;;178.85;52.28;;;4.40;99.90;;;;;;5049431;28;20054;-90
2022/01/26 10:47:26;;;;;;;189.13;54.38;;;4.40;99.90;;;;;;5080791;28;20379;-90
2022/01/26 10:50:08;;;;;;;178.70;53.45;;;4.40;99.90;;;;;;5073272;28;20040;-91
2022/01/26 10:52:36;;;;;;;172.00;51.63;;;4.40;99.90;;;;;;5072612;28;20051;-91
2022/01/26 10:55:07;;;;;;;178.93;52.85;;;4.40;99.90;;;;;;5067397;28;20071;-90
2022/01/26 10:57:34;;;;;;;178.18;53.33;;;4.30;99.90;;;;;;5069625;28;20040;-91
2022/01/26 11:00:02;;;;;;;161.23;47.28;;;4.40;99.90;;;;;;5071777;28;20043;-90
2022/01/26 11:02:31;;;;;;;159.15;50.53;;;4.50;99.90;;;;;;5076998;28;20429;-89
2022/01/26 11:04:56;;;;;;;174.88;50.70;;;4.60;99.90;;;;;;5096211;28;20460;-89
2022/01/26 11:07:34;;;;;;;173.02;47.90;;;4.50;99.90;;;;;;5074104;28;20063;-89
2022/01/26 11:10:06;;;;;;;188.95;56.08;;;4.50;99.90;;;;;;5073505;28;20051;-89
2022/01/26 11:12:32;;;;;;;185.15;55.90;;;4.50;99.90;;;;;;5077251;28;20379;-89
2022/01/26 11:15:05;;;;;;;200.65;64.13;;;4.50;99.90;;;;;;5073679;28;20040;-89
2022/01/26 11:17:38;;;;;;;188.60;59.90;;;4.50;99.90;;;;;;5074107;28;20550;-90
2022/01/26 11:20:17;;;;;;;;;;;4.60;99.90;;;;;;5073814;28;20047;-90
2022/01/26 11:23:02;;;;;;;173.88;52.03;;;4.50;99.90;;;;;;5073949;28;20334;-90
2022/01/26 11:25:30;;;;;;;173.65;50.35;;;4.40;99.90;;;;;;5074017;28;20044;-90
2022/01/26 11:27:57;;;;;;;194.30;60.35;;;4.60;99.90;;;;;;5074452;28;20086;-90
2022/01/26 11:30:30;;;;;;;189.60;55.65;;;4.60;99.90;;;;;;5070021;28;20036;-90
2022/01/26 11:33:20;;;;;;;178.85;54.13;;;4.50;99.90;;;;;;5067658;28;20390;-90
2022/01/26 11:35:48;;;;;;;168.20;51.38;;;4.60;99.90;;;;;;5065780;28;20508;-90
2022/01/26 11:46:38;;;;;;;170.02;50.33;;;4.60;99.90;;;;;;5077572;28;20056;-90
2022/01/26 11:49:10;;;;;;;154.90;49.10;;;4.60;99.90;;;;;;5066619;28;20066;-90
2022/01/26 11:51:50;;;;;;;181.05;52.28;;;4.60;99.90;;;;;;5050621;28;20509;-91
2022/01/26 11:54:19;;;;;;;164.05;52.05;;;4.60;99.90;;;;;;5061304;28;20041;-90
2022/01/26 11:56:55;;;;;;;162.18;49.10;;;4.70;99.90;;;;;;5075613;28;20045;-90
2022/01/26 11:59:22;;;;;;;150.15;46.42;;;4.80;99.90;;;;;;5044999;28;20048;-91
2022/01/26 12:01:56;;;;;;;169.90;49.00;;;4.80;99.90;;;;;;5053336;28;20045;-90
2022/01/26 12:04:24;;;;;;;;;;;4.80;99.90;;;;;;5056244;28;20127;-90
2022/01/26 12:06:57;;;;;;;154.02;47.40;;;4.90;99.90;;;;;;5055620;28;19974;-90
2022/01/26 12:09:23;;;;;;;153.77;45.95;;;4.90;99.90;;;;;;5063643;28;20526;-90
2022/01/26 12:11:54;;;;;;;147.98;43.67;;;4.90;99.90;;;;;;5055881;28;20047;-90
2022/01/26 12:14:21;;;;;;;153.32;42.03;;;4.90;99.90;;;;;;5060258;28;20083;-90
2022/01/26 12:16:50;;;;;;;147.50;42.45;;;4.90;99.90;;;;;;5071519;28;20051;-90
2022/01/26 12:19:46;;;;;;;138.15;41.65;;;4.90;99.90;;;;;;5070688;28;20032;-91
2022/01/26 12:33:25;;;;;;;134.77;41.40;;;4.90;99.90;;;;;;5062090;28;20047;-89
2022/01/26 12:35:56;;;;;;;142.57;43.13;;;4.70;99.90;;;;;;5048219;28;20032;-89
2022/01/26 12:38:45;;;;;;;159.95;50.78;;;4.80;99.90;;;;;;5050919;28;20032;-89
2022/01/26 12:43:49;;;;;;;130.90;39.42;;;4.80;99.90;;;;;;5068054;28;20051;-89
2022/01/26 12:46:34;;;;;;;127.32;39.67;;;4.80;99.90;;;;;;5052503;28;20052;-90
2022/01/26 12:49:09;;;;;;;129.43;39.60;;;5.00;99.90;;;;;;5088912;28;20073;-90
2022/01/26 12:51:54;;;;;;;123.47;36.10;;;5.00;99.90;;;;;;5095554;28;20046;-88
2022/01/26 12:54:20;;;;;;;114.70;35.20;;;5.10;99.90;;;;;;5087098;28;20097;-89
2022/01/26 12:56:46;;;;;;;123.63;38.80;;;5.30;99.90;;;;;;5083071;27;20102;-89
2022/01/26 12:59:20;;;;;;;138.65;39.67;;;5.10;99.90;;;;;;5101458;27;20504;-89
2022/01/26 13:01:46;;;;;;;119.15;35.03;;;5.10;99.90;;;;;;5080249;28;20040;-89
2022/01/26 13:04:14;;;;;;;123.38;38.50;;;5.00;99.90;;;;;;5067362;28;20039;-88
2022/01/26 13:06:51;;;;;;;125.78;38.30;;;5.10;99.90;;;;;;5077479;27;20039;-89
2022/01/26 13:09:21;;;;;;;127.50;38.58;;;5.00;99.90;;;;;;5085180;27;20058;-89
2022/01/26 13:11:49;;;;;;;125.63;36.83;;;5.10;99.90;;;;;;5078009;27;20528;-89
2022/01/26 13:14:32;;;;;;;118.32;36.55;;;5.10;99.90;;;;;;5076038;27;20040;-89
2022/01/26 13:17:24;;;;;;;112.45;36.00;;;5.10;99.90;;;;;;5064990;28;20058;-88
2022/01/26 13:20:22;;;;;;;122.60;35.47;;;5.20;99.90;;;;;;5069275;28;20431;-87
2022/01/26 13:25:52;;;;;;;109.25;34.08;;;5.20;99.90;;;;;;5093031;28;20043;-89
2022/01/26 13:28:37;;;;;;;118.82;35.10;;;5.10;99.90;;;;;;5073293;28;20043;-89
2022/01/26 13:42:58;;;;;;;118.32;39.50;;;5.30;99.90;;;;;;4952736;28;20567;-89
2022/01/26 13:48:16;;;;;;;108.32;35.28;;;5.30;99.90;;;;;;4949236;28;20047;-88
2022/01/26 13:53:43;;;;;;;101.15;34.35;;;5.40;99.90;;;;;;4957524;28;20492;-88
2022/01/26 13:56:16;;;;;;;108.75;34.67;;;5.50;99.90;;;;;;4964298;28;20080;-89
2022/01/26 13:58:54;;;;;;;118.85;35.13;;;5.50;99.90;;;;;;4955976;28;20633;-89
2022/01/26 14:01:20;;;;;;;105.40;37.25;;;5.40;99.90;;;;;;4951406;28;21092;-89
2022/01/26 14:03:50;;;;;;;105.22;35.42;;;5.40;99.90;;;;;;4923244;28;20055;-87
2022/01/26 14:06:15;;;;;;;105.45;35.28;;;5.40;99.90;;;;;;4944963;28;20069;-88
2022/01/26 14:08:42;;;;;;;107.30;32.38;;;5.40;99.90;;;;;;4935357;28;20046;-87
2022/01/26 14:11:08;;;;;;;113.90;34.67;;;5.50;99.90;;;;;;4979177;28;20052;-87
2022/01/26 14:13:35;;;;;;;112.07;34.75;;;5.50;99.90;;;;;;5044110;28;20111;-88
2022/01/26 14:16:04;;;;;;;113.88;37.05;;;5.50;99.90;;;;;;5074208;28;20179;-89
2022/01/26 14:18:50;;;;;;;110.75;34.40;;;5.40;99.90;;;;;;5071403;28;20401;-89
2022/01/26 14:21:28;;;;;;;109.75;35.10;;;5.50;99.90;;;;;;5073502;28;20043;-89
2022/01/26 14:24:23;;;;;;;109.95;37.05;;;5.50;99.90;;;;;;5084368;28;20392;-89
2022/01/26 14:26:50;;;;;;;105.70;36.80;;;5.40;99.90;;;;;;5093129;28;20052;-89
2022/01/26 14:29:24;;;;;;;112.35;37.97;;;5.50;99.90;;;;;;5061505;28;20050;-89
2022/01/26 14:34:49;;;;;;;108.18;33.53;;;5.50;99.90;;;;;;5091798;28;20066;-89
2022/01/26 14:40:05;;;;;;;101.30;35.63;;;5.60;99.90;;;;;;5084838;28;20409;-89
2022/01/26 15:12:18;;;;;;;;;;;5.50;99.90;;;;;;5091337;28;20602;-88
2022/01/26 15:21:53;;;;;;;119.97;37.65;;;5.50;99.90;;;;;;5089516;28;19919;-89
2022/01/26 15:34:08;;;;;;;;;;;5.30;99.90;;;;;;5077834;28;20047;-90
2022/01/26 15:44:49;;;;;;;106.07;31.65;;;5.40;99.90;;;;;;5077883;28;19924;-89
2022/01/26 15:53:00;;;;;;;;;;;5.40;99.90;;;;;;5107896;28;20532;-89
2022/01/26 16:06:14;;;;;;;113.97;37.10;;;5.20;99.90;;;;;;5091086;28;20484;-90
2022/01/26 16:16:57;;;;;;;118.00;43.83;;;5.20;99.90;;;;;;5107620;28;19919;-88
2022/01/26 16:35:33;;;;;;;106.03;36.15;;;5.00;99.90;;;;;;5100258;28;20385;-87
2022/01/26 17:24:40;;;;;;;100.20;30.95;;;5.30;99.90;;;;;;5088793;28;19920;-90
2022/01/26 18:13:43;;;;;;;;;;;5.50;99.90;;;;;;5079920;28;20044;-88